createdAt,value
2023-03-08T00:00:37.146Z,21.09
2023-03-08T00:01:37.745Z,21.14
2023-03-08T00:02:38.348Z,20.97
2023-03-08T00:03:38.990Z,20.97
2023-03-08T00:04:39.665Z,21.05
2023-03-08T00:05:40.282Z,20.97
2023-03-08T00:06:40.936Z,21.00
2023-03-08T00:07:41.546Z,20.95
2023-03-08T00:08:42.169Z,21.02
2023-03-08T00:09:42.797Z,20.87
2023-03-08T00:10:43.396Z,20.88
2023-03-08T00:11:43.995Z,20.87
2023-03-08T00:12:44.595Z,20.90
2023-03-08T00:13:45.194Z,20.88
2023-03-08T00:14:45.799Z,20.84
2023-03-08T00:15:46.540Z,20.90
2023-03-08T00:16:47.127Z,20.84
2023-03-08T00:17:47.728Z,20.72
2023-03-08T00:18:48.323Z,20.81
2023-03-08T00:19:48.928Z,20.81
2023-03-08T00:20:49.530Z,20.82
2023-03-08T00:21:50.136Z,20.81
2023-03-08T00:22:50.736Z,20.78
2023-03-08T00:23:51.346Z,20.80
2023-03-08T00:24:51.942Z,20.77
2023-03-08T00:25:52.549Z,20.72
2023-03-08T00:26:53.153Z,20.69
2023-03-08T00:27:53.757Z,20.63
2023-03-08T00:28:54.473Z,20.63
2023-03-08T00:29:55.114Z,20.62
2023-03-08T00:30:56.703Z,20.63
2023-03-08T00:31:57.362Z,20.59
2023-03-08T00:32:57.968Z,20.69
2023-03-08T00:33:58.580Z,20.66
2023-03-08T00:35:00.026Z,20.65
2023-03-08T00:36:00.624Z,20.63
2023-03-08T00:37:01.220Z,20.65
2023-03-08T00:38:01.874Z,20.56
2023-03-08T00:39:02.457Z,20.63
2023-03-08T00:40:03.260Z,20.66
2023-03-08T00:41:03.880Z,20.62
2023-03-08T00:42:04.466Z,20.62
2023-03-08T00:43:05.116Z,20.62
2023-03-08T00:44:05.716Z,20.51
2023-03-08T00:45:06.320Z,20.59
2023-03-08T00:46:06.927Z,20.56
2023-03-08T00:47:07.538Z,20.50
2023-03-08T00:48:08.130Z,20.51
2023-03-08T00:49:08.727Z,20.52
2023-03-08T00:50:09.331Z,20.50
2023-03-08T00:51:09.932Z,20.48
2023-03-08T00:52:10.533Z,20.50
2023-03-08T00:53:11.145Z,20.44
2023-03-08T00:54:11.741Z,20.47
2023-03-08T00:55:12.388Z,20.52
2023-03-08T00:56:12.985Z,20.47
2023-03-08T00:57:13.591Z,20.47
2023-03-08T00:58:14.197Z,20.44
2023-03-08T00:59:14.802Z,20.48
2023-03-08T01:00:15.417Z,20.43
2023-03-08T01:01:16.024Z,20.41
2023-03-08T01:02:16.680Z,20.50
2023-03-08T01:03:17.269Z,20.40
2023-03-08T01:04:17.878Z,20.40
2023-03-08T01:05:18.469Z,20.41
2023-03-08T01:06:19.074Z,20.34
2023-03-08T01:07:19.675Z,20.36
2023-03-08T01:08:20.353Z,20.32
2023-03-08T01:09:20.946Z,20.32
2023-03-08T01:10:21.563Z,20.40
2023-03-08T01:11:22.147Z,20.29
2023-03-08T01:12:22.751Z,20.36
2023-03-08T01:13:23.359Z,20.32
2023-03-08T01:14:24.022Z,20.26
2023-03-08T01:15:24.625Z,20.31
2023-03-08T01:16:25.233Z,20.28
2023-03-08T01:17:25.899Z,20.26
2023-03-08T01:18:26.503Z,20.28
2023-03-08T01:19:27.106Z,20.29
2023-03-08T01:20:27.698Z,20.26
2023-03-08T01:21:28.303Z,20.31
2023-03-08T01:22:28.906Z,20.34
2023-03-08T01:23:29.503Z,20.28
2023-03-08T01:24:30.107Z,20.32
2023-03-08T01:25:30.712Z,20.34
2023-03-08T01:26:31.390Z,20.28
2023-03-08T01:27:31.994Z,20.25
2023-03-08T01:28:32.602Z,20.25
2023-03-08T01:29:33.257Z,20.25
2023-03-08T01:30:33.861Z,20.21
2023-03-08T01:31:34.455Z,20.14
2023-03-08T01:32:35.099Z,20.19
2023-03-08T01:33:36.545Z,20.21
2023-03-08T01:34:37.149Z,20.24
2023-03-08T01:35:37.839Z,20.13
2023-03-08T01:36:38.481Z,20.24
2023-03-08T01:37:39.150Z,20.22
2023-03-08T01:38:39.749Z,20.18
2023-03-08T01:39:40.367Z,20.24
2023-03-08T01:40:41.005Z,20.19
2023-03-08T01:41:41.610Z,20.14
2023-03-08T01:42:42.212Z,20.19
2023-03-08T01:43:42.869Z,20.18
2023-03-08T01:44:43.533Z,20.18
2023-03-08T01:45:44.129Z,20.22
2023-03-08T01:46:44.726Z,20.22
2023-03-08T01:47:45.383Z,20.16
2023-03-08T01:48:45.989Z,20.18
2023-03-08T01:49:46.594Z,20.18
2023-03-08T01:50:47.191Z,20.21
2023-03-08T01:51:47.792Z,20.19
2023-03-08T01:52:48.388Z,20.07
2023-03-08T01:53:48.985Z,20.04
2023-03-08T01:54:49.590Z,20.18
2023-03-08T01:55:50.190Z,20.09
2023-03-08T01:56:50.843Z,20.16
2023-03-08T01:57:51.448Z,20.16
2023-03-08T01:58:52.052Z,20.13
2023-03-08T01:59:52.649Z,20.06
2023-03-08T02:00:53.276Z,20.07
2023-03-08T02:01:53.909Z,20.09
2023-03-08T02:02:54.512Z,20.04
2023-03-08T02:03:55.124Z,20.07
2023-03-08T02:04:55.734Z,20.04
2023-03-08T02:05:56.335Z,20.04
2023-03-08T02:06:56.937Z,20.04
2023-03-08T02:07:57.596Z,20.04
2023-03-08T02:08:58.195Z,20.06
2023-03-08T02:09:58.818Z,20.02
2023-03-08T02:10:59.411Z,20.09
2023-03-08T02:12:00.028Z,20.06
2023-03-08T02:13:00.617Z,20.04
2023-03-08T02:14:01.221Z,20.07
2023-03-08T02:15:01.816Z,20.04
2023-03-08T02:16:02.412Z,20.07
2023-03-08T02:17:03.014Z,20.06
2023-03-08T02:18:03.610Z,20.02
2023-03-08T02:19:04.318Z,20.07
2023-03-08T02:20:04.919Z,20.04
2023-03-08T02:21:05.522Z,20.00
2023-03-08T02:22:06.128Z,20.02
2023-03-08T02:23:06.745Z,19.94
2023-03-08T02:24:07.328Z,19.99
2023-03-08T02:25:07.927Z,19.96
2023-03-08T02:26:08.533Z,20.03
2023-03-08T02:27:09.127Z,19.88
2023-03-08T02:28:09.737Z,19.91
2023-03-08T02:29:10.331Z,19.95
2023-03-08T02:30:10.934Z,19.99
2023-03-08T02:31:11.531Z,19.96
2023-03-08T02:32:12.183Z,19.96
2023-03-08T02:33:12.798Z,19.95
2023-03-08T02:34:13.409Z,19.91
2023-03-08T02:35:14.126Z,19.95
2023-03-08T02:36:14.736Z,19.99
2023-03-08T02:37:15.339Z,19.91
2023-03-08T02:38:15.938Z,19.94
2023-03-08T02:39:16.542Z,19.99
2023-03-08T02:40:17.136Z,19.99
2023-03-08T02:41:17.775Z,19.94
2023-03-08T02:42:18.498Z,19.95
2023-03-08T02:43:19.098Z,19.95
2023-03-08T02:44:19.695Z,19.88
2023-03-08T02:45:20.364Z,19.92
2023-03-08T02:46:20.961Z,19.91
2023-03-08T02:47:22.410Z,19.89
2023-03-08T02:48:23.008Z,19.96
2023-03-08T02:49:23.602Z,19.88
2023-03-08T02:50:24.255Z,19.91
2023-03-08T02:51:24.853Z,19.94
2023-03-08T02:52:25.448Z,19.91
2023-03-08T02:53:26.055Z,19.89
2023-03-08T02:54:27.510Z,20.02
2023-03-08T02:55:28.122Z,19.96
2023-03-08T02:56:28.711Z,19.89
2023-03-08T02:57:29.334Z,19.95
2023-03-08T02:58:29.931Z,19.89
2023-03-08T02:59:30.528Z,19.91
2023-03-08T03:00:31.135Z,19.94
2023-03-08T03:01:31.750Z,19.89
2023-03-08T03:02:32.348Z,19.92
2023-03-08T03:03:32.949Z,19.94
2023-03-08T03:04:33.618Z,19.94
2023-03-08T03:05:34.231Z,19.92
2023-03-08T03:06:34.874Z,19.86
2023-03-08T03:07:35.540Z,19.91
2023-03-08T03:08:36.138Z,19.89
2023-03-08T03:09:36.743Z,19.89
2023-03-08T03:10:49.263Z,19.92
2023-03-08T03:11:49.869Z,19.86
2023-03-08T03:12:50.474Z,19.95
2023-03-08T03:13:51.076Z,19.86
2023-03-08T03:14:51.688Z,19.88
2023-03-08T03:15:52.408Z,19.82
2023-03-08T03:16:53.007Z,19.88
2023-03-08T03:17:53.602Z,19.86
2023-03-08T03:18:54.209Z,19.85
2023-03-08T03:19:54.803Z,19.85
2023-03-08T03:20:55.408Z,19.91
2023-03-08T03:21:56.016Z,19.89
2023-03-08T03:22:56.626Z,19.88
2023-03-08T03:23:57.227Z,19.86
2023-03-08T03:24:57.836Z,19.84
2023-03-08T03:25:58.423Z,19.89
2023-03-08T03:26:59.019Z,19.85
2023-03-08T03:27:59.619Z,19.85
2023-03-08T03:29:00.234Z,19.85
2023-03-08T03:30:00.845Z,19.88
2023-03-08T03:31:01.464Z,19.88
2023-03-08T03:32:02.047Z,19.88
2023-03-08T03:33:02.646Z,19.86
2023-03-08T03:34:03.257Z,19.85
2023-03-08T03:35:03.847Z,19.79
2023-03-08T03:36:04.465Z,19.79
2023-03-08T03:37:05.079Z,19.85
2023-03-08T03:38:06.584Z,19.82
2023-03-08T03:39:07.206Z,19.84
2023-03-08T03:40:07.831Z,19.82
2023-03-08T03:41:08.414Z,19.77
2023-03-08T03:42:09.011Z,19.79
2023-03-08T03:43:09.613Z,19.84
2023-03-08T03:44:10.213Z,19.77
2023-03-08T03:45:10.866Z,19.77
2023-03-08T03:46:11.493Z,19.71
2023-03-08T03:47:12.136Z,19.76
2023-03-08T03:48:12.739Z,19.85
2023-03-08T03:49:13.500Z,19.84
2023-03-08T03:50:14.093Z,19.70
2023-03-08T03:51:14.696Z,19.74
2023-03-08T03:52:15.300Z,19.84
2023-03-08T03:53:15.893Z,19.85
2023-03-08T03:54:16.500Z,19.81
2023-03-08T03:55:17.106Z,19.82
2023-03-08T03:56:17.754Z,19.77
2023-03-08T03:57:18.400Z,19.74
2023-03-08T03:58:19.004Z,19.76
2023-03-08T03:59:19.611Z,19.70
2023-03-08T04:00:20.210Z,19.76
2023-03-08T04:01:20.809Z,19.76
2023-03-08T04:02:21.402Z,19.79
2023-03-08T04:03:22.243Z,19.76
2023-03-08T04:04:22.944Z,19.70
2023-03-08T04:05:23.535Z,19.71
2023-03-08T04:06:24.136Z,19.74
2023-03-08T04:07:24.736Z,19.77
2023-03-08T04:08:25.402Z,19.76
2023-03-08T04:09:25.990Z,19.73
2023-03-08T04:10:26.590Z,19.74
2023-03-08T04:11:27.291Z,19.66
2023-03-08T04:12:27.872Z,19.69
2023-03-08T04:13:28.474Z,19.67
2023-03-08T04:14:29.070Z,19.67
2023-03-08T04:15:29.667Z,19.74
2023-03-08T04:16:30.343Z,19.74
2023-03-08T04:17:30.940Z,19.77
2023-03-08T04:18:31.607Z,19.69
2023-03-08T04:19:32.402Z,19.77
2023-03-08T04:20:33.007Z,19.73
2023-03-08T04:21:33.634Z,19.63
2023-03-08T04:22:34.217Z,19.73
2023-03-08T04:23:34.891Z,19.69
2023-03-08T04:24:35.474Z,19.76
2023-03-08T04:25:36.082Z,19.64
2023-03-08T04:26:36.676Z,19.69
2023-03-08T04:27:37.275Z,19.76
2023-03-08T04:28:37.869Z,19.66
2023-03-08T04:29:38.474Z,19.64
2023-03-08T04:30:39.077Z,19.64
2023-03-08T04:31:39.743Z,19.62
2023-03-08T04:32:40.365Z,19.70
2023-03-08T04:33:40.982Z,19.64
2023-03-08T04:34:41.584Z,19.66
2023-03-08T04:35:42.207Z,19.63
2023-03-08T04:36:42.831Z,19.69
2023-03-08T04:37:43.434Z,19.66
2023-03-08T04:38:44.036Z,19.64
2023-03-08T04:39:44.640Z,19.63
2023-03-08T04:40:45.236Z,19.63
2023-03-08T04:41:45.842Z,19.69
2023-03-08T04:42:46.443Z,19.63
2023-03-08T04:43:47.201Z,19.69
2023-03-08T04:44:47.804Z,19.64
2023-03-08T04:45:48.400Z,19.67
2023-03-08T04:46:49.075Z,19.59
2023-03-08T04:47:49.698Z,19.69
2023-03-08T04:48:50.292Z,19.58
2023-03-08T04:49:50.890Z,19.64
2023-03-08T04:50:51.496Z,19.64
2023-03-08T04:51:52.150Z,19.55
2023-03-08T04:52:52.749Z,19.62
2023-03-08T04:53:53.350Z,19.59
2023-03-08T04:54:53.951Z,19.67
2023-03-08T04:55:54.554Z,19.64
2023-03-08T04:56:55.207Z,19.58
2023-03-08T04:57:55.802Z,19.56
2023-03-08T04:58:56.407Z,19.64
2023-03-08T04:59:57.003Z,19.54
2023-03-08T05:00:57.607Z,19.54
2023-03-08T05:01:58.253Z,19.58
2023-03-08T05:02:58.878Z,19.62
2023-03-08T05:03:59.557Z,19.63
2023-03-08T05:05:00.294Z,19.62
2023-03-08T05:06:00.954Z,19.63
2023-03-08T05:07:01.563Z,19.64
2023-03-08T05:08:02.167Z,19.51
2023-03-08T05:09:02.765Z,19.69
2023-03-08T05:10:03.378Z,19.59
2023-03-08T05:11:03.977Z,19.59
2023-03-08T05:12:04.572Z,19.59
2023-03-08T05:13:05.182Z,19.64
2023-03-08T05:14:05.782Z,19.55
2023-03-08T05:15:06.584Z,19.62
2023-03-08T05:16:07.232Z,19.56
2023-03-08T05:17:07.896Z,19.54
2023-03-08T05:18:08.489Z,19.56
2023-03-08T05:19:09.951Z,19.55
2023-03-08T05:20:10.543Z,19.55
2023-03-08T05:21:11.137Z,19.62
2023-03-08T05:22:11.736Z,19.63
2023-03-08T05:23:12.339Z,19.59
2023-03-08T05:24:12.944Z,19.58
2023-03-08T05:25:13.548Z,19.55
2023-03-08T05:26:14.152Z,19.52
2023-03-08T05:27:14.752Z,19.52
2023-03-08T05:28:15.342Z,19.54
2023-03-08T05:29:15.948Z,19.56
2023-03-08T05:30:16.541Z,19.55
2023-03-08T05:31:17.157Z,19.58
2023-03-08T05:32:17.784Z,19.54
2023-03-08T05:33:18.382Z,19.55
2023-03-08T05:34:18.983Z,19.56
2023-03-08T05:35:19.633Z,19.54
2023-03-08T05:36:20.229Z,19.55
2023-03-08T05:37:20.819Z,19.58
2023-03-08T05:38:21.413Z,19.52
2023-03-08T05:39:22.012Z,19.51
2023-03-08T05:40:22.631Z,19.55
2023-03-08T05:41:23.223Z,19.56
2023-03-08T05:42:23.901Z,19.49
2023-03-08T05:43:24.490Z,19.54
2023-03-08T05:44:25.167Z,19.55
2023-03-08T05:45:25.860Z,19.41
2023-03-08T05:46:26.480Z,19.55
2023-03-08T05:47:27.106Z,19.49
2023-03-08T05:48:27.706Z,19.51
2023-03-08T05:49:28.297Z,19.47
2023-03-08T05:50:28.903Z,19.45
2023-03-08T05:51:29.500Z,19.44
2023-03-08T05:52:30.282Z,19.51
2023-03-08T05:53:31.515Z,19.48
2023-03-08T05:54:32.119Z,19.45
2023-03-08T05:55:32.721Z,19.55
2023-03-08T05:56:33.320Z,19.58
2023-03-08T05:57:34.062Z,19.49
2023-03-08T05:58:34.676Z,19.51
2023-03-08T05:59:35.262Z,19.54
2023-03-08T06:00:35.869Z,19.54
2023-03-08T06:01:37.320Z,19.49
2023-03-08T06:02:37.926Z,19.47
2023-03-08T06:03:38.536Z,19.47
2023-03-08T06:04:39.145Z,19.41
2023-03-08T06:05:39.743Z,19.49
2023-03-08T06:06:40.341Z,19.44
2023-03-08T06:07:40.937Z,19.54
2023-03-08T06:08:41.545Z,19.41
2023-03-08T06:09:42.134Z,19.48
2023-03-08T06:10:42.731Z,19.54
2023-03-08T06:11:43.339Z,19.51
2023-03-08T06:12:43.938Z,19.47
2023-03-08T06:13:44.598Z,19.52
2023-03-08T06:14:46.067Z,19.51
2023-03-08T06:15:46.660Z,19.47
2023-03-08T06:16:48.150Z,19.48
2023-03-08T06:17:48.776Z,19.48
2023-03-08T06:18:49.371Z,19.52
2023-03-08T06:19:49.966Z,19.47
2023-03-08T06:20:50.564Z,19.45
2023-03-08T06:21:51.171Z,19.45
2023-03-08T06:22:51.773Z,19.48
2023-03-08T06:23:52.371Z,19.44
2023-03-08T06:24:53.870Z,19.45
2023-03-08T06:25:54.472Z,19.47
2023-03-08T06:26:55.077Z,19.40
2023-03-08T06:27:55.673Z,19.41
2023-03-08T06:28:56.278Z,19.47
2023-03-08T06:29:56.884Z,19.47
2023-03-08T06:30:57.662Z,19.44
2023-03-08T06:32:00.427Z,19.44
2023-03-08T06:32:59.909Z,19.51
2023-03-08T06:34:01.357Z,19.45
2023-03-08T06:35:01.950Z,19.45
2023-03-08T06:36:03.427Z,19.45
2023-03-08T06:37:04.064Z,19.52
2023-03-08T06:38:04.662Z,19.44
2023-03-08T06:39:05.275Z,19.45
2023-03-08T06:40:05.903Z,19.52
2023-03-08T06:41:06.491Z,19.44
2023-03-08T06:42:07.090Z,19.49
2023-03-08T06:43:07.683Z,19.45
2023-03-08T06:44:08.307Z,19.44
2023-03-08T06:45:08.956Z,19.49
2023-03-08T06:46:09.702Z,19.44
2023-03-08T06:47:10.318Z,19.48
2023-03-08T06:48:10.919Z,19.45
2023-03-08T06:49:11.526Z,19.44
2023-03-08T06:50:12.136Z,19.48
2023-03-08T06:51:12.722Z,19.48
2023-03-08T06:52:13.329Z,19.49
2023-03-08T06:53:14.007Z,19.44
2023-03-08T06:54:14.663Z,19.40
2023-03-08T06:55:15.265Z,19.45
2023-03-08T06:56:15.862Z,19.41
2023-03-08T06:57:16.454Z,19.48
2023-03-08T06:58:17.061Z,19.40
2023-03-08T06:59:17.661Z,19.49
2023-03-08T07:00:18.261Z,19.47
2023-03-08T07:01:18.904Z,19.45
2023-03-08T07:02:19.519Z,19.47
2023-03-08T07:03:20.117Z,19.40
2023-03-08T07:04:20.764Z,19.48
2023-03-08T07:05:21.384Z,19.48
2023-03-08T07:06:21.976Z,19.47
2023-03-08T07:07:22.623Z,19.47
2023-03-08T07:08:23.268Z,19.47
2023-03-08T07:09:24.670Z,19.41
2023-03-08T07:10:25.258Z,19.47
2023-03-08T07:11:25.856Z,19.47
2023-03-08T07:12:26.463Z,19.45
2023-03-08T07:13:27.073Z,19.45
2023-03-08T07:14:27.682Z,19.40
2023-03-08T07:15:28.409Z,19.48
2023-03-08T07:16:29.076Z,19.40
2023-03-08T07:17:29.669Z,19.37
2023-03-08T07:18:30.275Z,19.40
2023-03-08T07:19:30.863Z,19.48
2023-03-08T07:20:31.471Z,19.44
2023-03-08T07:21:32.147Z,19.39
2023-03-08T07:22:32.750Z,19.36
2023-03-08T07:23:33.370Z,19.44
2023-03-08T07:24:34.006Z,19.34
2023-03-08T07:25:34.606Z,19.41
2023-03-08T07:26:35.207Z,19.39
2023-03-08T07:27:35.811Z,19.40
2023-03-08T07:28:36.417Z,19.40
2023-03-08T07:29:37.074Z,19.41
2023-03-08T07:30:37.679Z,19.41
2023-03-08T07:31:38.327Z,19.34
2023-03-08T07:32:39.086Z,19.41
2023-03-08T07:33:39.762Z,19.44
2023-03-08T07:34:40.429Z,19.41
2023-03-08T07:35:41.103Z,19.44
2023-03-08T07:36:41.760Z,19.44
2023-03-08T07:37:42.361Z,19.45
2023-03-08T07:38:43.071Z,19.39
2023-03-08T07:39:43.718Z,19.39
2023-03-08T07:40:45.173Z,19.44
2023-03-08T07:41:47.549Z,19.41
2023-03-08T07:42:46.507Z,19.45
2023-03-08T07:43:47.971Z,19.40
2023-03-08T07:44:48.569Z,19.39
2023-03-08T07:45:49.174Z,19.45
2023-03-08T07:46:49.780Z,19.39
2023-03-08T07:47:50.376Z,19.39
2023-03-08T07:48:52.545Z,19.37
2023-03-08T07:49:52.562Z,19.37
2023-03-08T07:50:53.164Z,19.41
2023-03-08T07:51:53.829Z,19.34
2023-03-08T07:52:54.427Z,19.41
2023-03-08T07:53:55.053Z,19.39
2023-03-08T07:54:55.643Z,19.45
2023-03-08T07:55:56.251Z,19.34
2023-03-08T07:56:56.852Z,19.40
2023-03-08T07:57:57.451Z,19.40
2023-03-08T07:58:58.076Z,19.36
2023-03-08T07:59:58.673Z,19.37
2023-03-08T08:00:59.282Z,19.37
2023-03-08T08:01:59.960Z,19.36
2023-03-08T08:03:00.623Z,19.41
2023-03-08T08:04:01.318Z,19.39
2023-03-08T08:05:01.977Z,19.40
2023-03-08T08:06:02.561Z,19.44
2023-03-08T08:07:05.087Z,19.41
2023-03-08T08:08:04.781Z,19.40
2023-03-08T08:09:05.436Z,19.40
2023-03-08T08:10:06.042Z,19.39
2023-03-08T08:11:06.760Z,19.45
2023-03-08T08:12:08.222Z,19.39
2023-03-08T08:13:08.830Z,19.41
2023-03-08T08:14:09.430Z,19.33
2023-03-08T08:15:10.032Z,19.40
2023-03-08T08:16:10.689Z,19.44
2023-03-08T08:17:11.309Z,19.36
2023-03-08T08:18:11.902Z,19.37
2023-03-08T08:19:12.529Z,19.37
2023-03-08T08:20:13.116Z,19.39
2023-03-08T08:21:13.715Z,19.40
2023-03-08T08:22:14.386Z,19.33
2023-03-08T08:23:14.990Z,19.40
2023-03-08T08:24:15.590Z,19.39
2023-03-08T08:25:16.179Z,19.39
2023-03-08T08:26:16.786Z,19.39
2023-03-08T08:27:17.377Z,19.34
2023-03-08T08:28:17.975Z,19.39
2023-03-08T08:29:18.580Z,19.40
2023-03-08T08:30:19.189Z,19.45
2023-03-08T08:31:19.870Z,19.37
2023-03-08T08:32:21.326Z,19.44
2023-03-08T08:33:21.916Z,19.44
2023-03-08T08:34:23.367Z,19.40
2023-03-08T08:35:31.152Z,19.34
2023-03-08T08:36:25.587Z,19.34
2023-03-08T08:37:26.242Z,19.37
2023-03-08T08:38:26.847Z,19.48
2023-03-08T08:39:27.450Z,19.39
2023-03-08T08:40:28.439Z,19.40
2023-03-08T08:41:29.619Z,19.39
2023-03-08T08:42:30.271Z,19.34
2023-03-08T08:43:30.876Z,19.36
2023-03-08T08:44:31.631Z,19.30
2023-03-08T08:45:32.263Z,19.34
2023-03-08T08:46:32.862Z,19.39
2023-03-08T08:47:33.465Z,19.37
2023-03-08T08:48:34.065Z,19.37
2023-03-08T08:49:34.662Z,19.37
2023-03-08T08:50:35.260Z,19.37
2023-03-08T08:51:35.914Z,19.41
2023-03-08T08:52:36.654Z,19.40
2023-03-08T08:53:37.251Z,19.39
2023-03-08T08:54:37.925Z,19.39
2023-03-08T08:55:41.226Z,19.34
2023-03-08T08:56:40.144Z,19.39
2023-03-08T08:57:40.733Z,19.36
2023-03-08T08:58:41.339Z,19.41
2023-03-08T08:59:41.937Z,19.44
2023-03-08T09:00:42.543Z,19.39
2023-03-08T09:01:43.143Z,19.27
2023-03-08T09:02:43.791Z,19.26
2023-03-08T09:03:44.441Z,19.44
2023-03-08T09:04:45.135Z,19.34
2023-03-08T09:05:45.891Z,19.29
2023-03-08T09:06:46.497Z,19.37
2023-03-08T09:07:47.094Z,19.39
2023-03-08T09:08:47.698Z,19.29
2023-03-08T09:09:48.293Z,19.27
2023-03-08T09:10:48.891Z,19.29
2023-03-08T09:11:55.124Z,19.27
2023-03-08T09:12:50.269Z,19.36
2023-03-08T09:13:50.847Z,19.41
2023-03-08T09:14:51.457Z,19.39
2023-03-08T09:15:52.077Z,19.40
2023-03-08T09:16:53.027Z,19.33
2023-03-08T09:17:53.757Z,19.29
2023-03-08T09:18:54.410Z,19.36
2023-03-08T09:19:55.009Z,19.39
2023-03-08T09:20:55.616Z,19.37
2023-03-08T09:21:56.261Z,19.39
2023-03-08T09:22:56.903Z,19.30
2023-03-08T09:23:57.527Z,19.40
2023-03-08T09:24:58.124Z,19.33
2023-03-08T09:25:59.912Z,19.34
2023-03-08T09:26:59.415Z,19.41
2023-03-08T09:28:00.104Z,19.39
2023-03-08T09:29:00.759Z,19.30
2023-03-08T09:30:01.365Z,19.44
2023-03-08T09:31:01.971Z,19.29
2023-03-08T09:32:02.622Z,19.37
2023-03-08T09:33:03.213Z,19.41
2023-03-08T09:34:03.807Z,19.33
2023-03-08T09:35:04.416Z,19.29
2023-03-08T09:36:05.017Z,19.40
2023-03-08T09:37:05.621Z,19.33
2023-03-08T09:38:06.227Z,19.39
2023-03-08T09:39:06.821Z,19.44
2023-03-08T09:40:07.467Z,19.39
2023-03-08T09:41:08.075Z,19.39
2023-03-08T09:42:09.521Z,19.33
2023-03-08T09:43:10.233Z,19.27
2023-03-08T09:44:10.837Z,19.36
2023-03-08T09:45:11.495Z,19.31
2023-03-08T09:46:12.131Z,19.41
2023-03-08T09:47:12.724Z,19.40
2023-03-08T09:48:13.441Z,19.40
2023-03-08T09:49:14.066Z,19.29
2023-03-08T09:50:14.683Z,19.36
2023-03-08T09:51:20.326Z,19.37
2023-03-08T09:52:20.924Z,19.22
2023-03-08T09:53:21.605Z,19.36
2023-03-08T09:54:22.272Z,19.45
2023-03-08T09:55:22.951Z,19.37
2023-03-08T09:56:23.606Z,19.39
2023-03-08T09:57:24.425Z,19.33
2023-03-08T09:58:24.874Z,19.36
2023-03-08T09:59:25.526Z,19.39
2023-03-08T10:00:26.130Z,19.41
2023-03-08T10:01:26.733Z,19.31
2023-03-08T10:02:27.345Z,19.27
2023-03-08T10:03:28.008Z,19.37
2023-03-08T10:04:28.679Z,19.34
2023-03-08T10:05:29.294Z,19.29
2023-03-08T10:06:29.887Z,19.41
2023-03-08T10:07:30.492Z,19.36
2023-03-08T10:08:31.094Z,19.36
2023-03-08T10:09:31.693Z,19.34
2023-03-08T10:10:33.088Z,19.33
2023-03-08T10:11:33.687Z,19.31
2023-03-08T10:12:34.309Z,19.31
2023-03-08T10:13:34.963Z,19.30
2023-03-08T10:14:35.610Z,19.31
2023-03-08T10:15:38.735Z,19.30
2023-03-08T10:16:38.822Z,19.21
2023-03-08T10:17:39.447Z,19.30
2023-03-08T10:18:40.056Z,19.31
2023-03-08T10:19:40.639Z,19.33
2023-03-08T10:20:41.244Z,19.33
2023-03-08T10:21:41.840Z,19.37
2023-03-08T10:22:42.485Z,19.26
2023-03-08T10:23:43.103Z,19.27
2023-03-08T10:24:43.723Z,19.36
2023-03-08T10:25:44.386Z,19.40
2023-03-08T10:26:44.992Z,19.33
2023-03-08T10:27:45.591Z,19.39
2023-03-08T10:28:46.193Z,19.29
2023-03-08T10:29:46.794Z,19.29
2023-03-08T10:30:47.436Z,19.30
2023-03-08T10:31:48.109Z,19.33
2023-03-08T10:32:48.790Z,19.26
2023-03-08T10:33:49.404Z,19.29
2023-03-08T10:34:50.006Z,19.30
2023-03-08T10:35:50.633Z,19.26
2023-03-08T10:36:51.223Z,19.29
2023-03-08T10:37:51.838Z,19.39
2023-03-08T10:38:52.437Z,19.37
2023-03-08T10:39:53.205Z,19.39
2023-03-08T10:40:53.827Z,19.33
2023-03-08T10:41:54.426Z,19.30
2023-03-08T10:42:55.041Z,19.36
2023-03-08T10:43:55.711Z,19.39
2023-03-08T10:44:56.300Z,19.26
2023-03-08T10:45:56.947Z,19.36
2023-03-08T10:46:57.553Z,19.33
2023-03-08T10:47:58.154Z,19.27
2023-03-08T10:48:58.746Z,19.29
2023-03-08T10:50:00.207Z,19.24
2023-03-08T10:51:00.799Z,19.29
2023-03-08T10:52:01.402Z,19.21
2023-03-08T10:53:02.849Z,19.29
2023-03-08T10:54:03.661Z,19.36
2023-03-08T10:55:04.246Z,19.33
2023-03-08T10:56:04.883Z,19.24
2023-03-08T10:57:05.479Z,19.30
2023-03-08T10:58:06.152Z,19.33
2023-03-08T10:59:06.811Z,19.36
2023-03-08T11:00:07.419Z,19.31
2023-03-08T11:01:08.151Z,19.26
2023-03-08T11:02:08.752Z,19.36
2023-03-08T11:03:09.345Z,19.29
2023-03-08T11:04:09.941Z,19.30
2023-03-08T11:05:10.549Z,19.31
2023-03-08T11:06:12.390Z,19.34
2023-03-08T11:07:13.793Z,19.39
2023-03-08T11:08:15.244Z,19.33
2023-03-08T11:09:15.840Z,19.40
2023-03-08T11:10:16.499Z,19.34
2023-03-08T11:11:17.148Z,19.29
2023-03-08T11:12:18.616Z,19.33
2023-03-08T11:13:19.202Z,19.31
2023-03-08T11:14:19.829Z,19.34
2023-03-08T11:15:20.472Z,19.21
2023-03-08T11:16:21.118Z,19.27
2023-03-08T11:17:21.775Z,19.27
2023-03-08T11:18:23.258Z,19.30
2023-03-08T11:19:23.865Z,19.26
2023-03-08T11:20:24.475Z,19.26
2023-03-08T11:21:25.149Z,19.31
2023-03-08T11:22:25.744Z,19.31
2023-03-08T11:23:26.348Z,19.31
2023-03-08T11:24:26.988Z,19.27
2023-03-08T11:25:27.574Z,19.26
2023-03-08T11:26:28.164Z,19.24
2023-03-08T11:27:28.767Z,19.39
2023-03-08T11:28:29.478Z,19.29
2023-03-08T11:29:30.835Z,19.31
2023-03-08T11:30:31.440Z,19.31
2023-03-08T11:31:32.170Z,19.31
2023-03-08T11:32:32.877Z,19.34
2023-03-08T11:33:33.670Z,19.26
2023-03-08T11:34:34.448Z,19.26
2023-03-08T11:35:35.069Z,19.22
2023-03-08T11:36:35.656Z,19.31
2023-03-08T11:37:36.251Z,19.33
2023-03-08T11:38:36.859Z,19.33
2023-03-08T11:39:37.537Z,19.29
2023-03-08T11:40:38.209Z,19.26
2023-03-08T11:41:38.812Z,19.27
2023-03-08T11:42:39.415Z,19.27
2023-03-08T11:43:40.013Z,19.31
2023-03-08T11:44:40.619Z,19.29
2023-03-08T11:45:41.217Z,19.29
2023-03-08T11:46:41.840Z,19.33
2023-03-08T11:47:42.461Z,19.27
2023-03-08T11:48:43.097Z,19.27
2023-03-08T11:49:43.693Z,19.26
2023-03-08T11:50:44.297Z,19.26
2023-03-08T11:51:44.946Z,19.24
2023-03-08T11:52:45.547Z,19.26
2023-03-08T11:53:46.139Z,19.21
2023-03-08T11:54:46.740Z,19.27
2023-03-08T11:55:48.191Z,19.31
2023-03-08T11:56:48.798Z,19.30
2023-03-08T11:57:49.393Z,19.29
2023-03-08T11:58:50.038Z,19.30
2023-03-08T11:59:50.653Z,19.27
2023-03-08T12:00:51.293Z,19.29
2023-03-08T12:01:51.890Z,19.31
2023-03-08T12:02:52.494Z,19.33
2023-03-08T12:03:53.174Z,19.26
2023-03-08T12:04:53.902Z,19.29
2023-03-08T12:05:54.690Z,19.27
2023-03-08T12:06:55.531Z,19.31
2023-03-08T12:07:56.232Z,19.33
2023-03-08T12:08:56.854Z,19.33
2023-03-08T12:09:57.546Z,19.22
2023-03-08T12:10:58.105Z,19.31
2023-03-08T12:11:58.713Z,19.27
2023-03-08T12:12:59.358Z,19.30
2023-03-08T12:14:00.090Z,19.39
2023-03-08T12:15:00.706Z,19.30
2023-03-08T12:16:01.355Z,19.31
2023-03-08T12:17:02.102Z,19.31
2023-03-08T12:18:02.756Z,19.30
2023-03-08T12:19:03.404Z,19.26
2023-03-08T12:20:04.014Z,19.34
2023-03-08T12:21:04.606Z,19.31
2023-03-08T12:22:05.283Z,19.33
2023-03-08T12:23:06.737Z,19.27
2023-03-08T12:24:07.386Z,19.33
2023-03-08T12:25:07.990Z,19.31
2023-03-08T12:26:08.583Z,19.27
2023-03-08T12:27:09.180Z,19.24
2023-03-08T12:28:09.824Z,19.30
2023-03-08T12:29:10.511Z,19.24
2023-03-08T12:30:11.109Z,19.31
2023-03-08T12:31:26.338Z,19.30
2023-03-08T12:32:13.690Z,19.30
2023-03-08T12:33:14.613Z,19.26
2023-03-08T12:34:15.139Z,19.31
2023-03-08T12:35:15.801Z,19.26
2023-03-08T12:36:17.313Z,19.33
2023-03-08T12:37:18.026Z,19.33
2023-03-08T12:38:18.670Z,19.19
2023-03-08T12:39:19.293Z,19.30
2023-03-08T12:40:19.937Z,19.29
2023-03-08T12:41:20.600Z,19.27
2023-03-08T12:42:21.201Z,19.30
2023-03-08T12:43:21.966Z,19.27
2023-03-08T12:44:22.573Z,19.27
2023-03-08T12:45:23.148Z,19.33
2023-03-08T12:46:23.760Z,19.26
2023-03-08T12:47:24.395Z,19.30
2023-03-08T12:48:25.042Z,19.31
2023-03-08T12:49:25.677Z,19.36
2023-03-08T12:50:26.347Z,19.24
2023-03-08T12:51:27.041Z,19.33
2023-03-08T12:52:27.661Z,19.31
2023-03-08T12:53:28.247Z,19.26
2023-03-08T12:54:28.854Z,19.29
2023-03-08T12:55:30.312Z,19.27
2023-03-08T12:56:30.904Z,19.31
2023-03-08T12:57:31.513Z,19.27
2023-03-08T12:58:32.199Z,19.31
2023-03-08T12:59:32.794Z,19.29
2023-03-08T13:00:33.394Z,19.29
2023-03-08T13:01:33.991Z,19.29